Aviation Digital Data Service (ADDS)

Output produced by METARs form (1229 UTC 25 June 2019)
found at http://www.aviationweather.gov/metar/data/
 
Forecast for: KORF (NORFOLK , VA, US)
Text: KORF 251120Z 2512/2612 20009KT P6SM SKC
Forecast period: 1200 to 1600 UTC 25 June 2019
Forecast type: FROM: standard forecast or significant change
Winds: from the SSW (200 degrees) at 10 MPH (9 knots; 4.6 m/s)
Visibility: 6 or more miles 10+ km)
Clouds: clear skies
Weather: no significant weather forecast for this period
Text: FM251600 33007KT P6SM BKN045
Forecast period: 1600 UTC 25 June 2019 to 0000 UTC 26 June 2019
Forecast type: FROM: standard forecast or significant change
Winds: from the NNW (330 degrees) at 8 MPH (7 knots; 3.6 m/s)
Visibility: 6 or more miles 10+ km)
Ceiling: 4500 feet AGL
Clouds: broken clouds at 4500 feet AGL
Weather: no significant weather forecast for this period
Text: FM260000 10004KT P6SM SCT150
Forecast period: 0000 to 1200 UTC 26 June 2019
Forecast type: FROM: standard forecast or significant change
Winds: from the E (100 degrees) at 5 MPH (4 knots; 2.1 m/s)
Visibility: 6 or more miles 10+ km)
Ceiling: at least 12,000 feet AGL
Clouds: scattered clouds at 15000 feet AGL
Weather: no significant weather forecast for this period